createdAt,value
2019-05-19T00:01:54.093Z,15.40
2019-05-19T00:04:21.973Z,15.40
2019-05-19T00:06:49.778Z,15.40
2019-05-19T00:09:17.702Z,15.40
2019-05-19T00:11:45.534Z,15.30
2019-05-19T00:14:13.425Z,15.30
2019-05-19T00:16:41.295Z,15.40
2019-05-19T00:19:09.168Z,15.40
2019-05-19T00:21:37.005Z,15.40
2019-05-19T00:24:04.911Z,15.30
2019-05-19T00:26:32.763Z,15.30
2019-05-19T00:29:00.631Z,15.20
2019-05-19T00:31:28.491Z,15.20
2019-05-19T00:33:56.353Z,15.10
2019-05-19T00:36:24.218Z,15.00
2019-05-19T00:38:52.091Z,15.00
2019-05-19T00:41:20.211Z,15.10
2019-05-19T00:43:48.082Z,15.10
2019-05-19T00:46:16.071Z,15.10
2019-05-19T00:48:43.866Z,15.00
2019-05-19T00:51:11.915Z,15.00
2019-05-19T00:53:39.811Z,15.00
2019-05-19T00:56:07.733Z,15.00
2019-05-19T00:58:35.710Z,15.10
2019-05-19T01:01:03.569Z,15.10
2019-05-19T01:03:31.391Z,15.10
2019-05-19T01:06:00.517Z,15.10
2019-05-19T01:08:28.330Z,15.10
2019-05-19T01:10:56.221Z,15.10
2019-05-19T01:13:24.058Z,15.10
2019-05-19T01:15:51.970Z,15.10
2019-05-19T01:18:19.876Z,15.10
2019-05-19T01:20:47.696Z,15.00
2019-05-19T01:23:15.537Z,15.00
2019-05-19T01:25:43.422Z,15.00
2019-05-19T01:28:11.186Z,14.90
2019-05-19T01:30:39.130Z,14.90
2019-05-19T01:33:07.006Z,14.90
2019-05-19T01:35:34.886Z,14.90
2019-05-19T01:38:02.738Z,14.90
2019-05-19T01:40:30.658Z,14.80
2019-05-19T01:42:58.475Z,14.80
2019-05-19T01:45:26.971Z,14.80
2019-05-19T01:47:55.218Z,14.70
2019-05-19T01:50:23.119Z,14.70
2019-05-19T01:52:50.995Z,14.70
2019-05-19T01:55:18.925Z,14.70
2019-05-19T01:57:46.811Z,14.80
2019-05-19T02:00:14.983Z,14.80
2019-05-19T02:02:42.843Z,14.80
2019-05-19T02:05:10.915Z,14.80
2019-05-19T02:07:38.801Z,14.70
2019-05-19T02:10:06.853Z,14.70
2019-05-19T02:12:34.734Z,14.70
2019-05-19T02:15:02.630Z,14.60
2019-05-19T02:17:30.459Z,14.60
2019-05-19T02:19:58.374Z,14.60
2019-05-19T02:22:26.204Z,14.60
2019-05-19T02:24:54.105Z,14.60
2019-05-19T02:27:21.943Z,14.60
2019-05-19T02:29:49.893Z,14.60
2019-05-19T02:32:17.770Z,14.60
2019-05-19T02:34:45.659Z,14.60
2019-05-19T02:37:13.511Z,14.60
2019-05-19T02:39:41.451Z,14.60
2019-05-19T02:42:09.431Z,14.60
2019-05-19T02:44:38.146Z,14.50
2019-05-19T02:47:06.221Z,14.50
2019-05-19T02:49:34.647Z,14.40
2019-05-19T02:52:03.406Z,14.30
2019-05-19T02:54:32.423Z,14.20
2019-05-19T02:57:01.350Z,14.20
2019-05-19T02:59:30.860Z,14.10
2019-05-19T03:02:07.540Z,14.10
2019-05-19T03:04:35.433Z,14.10
2019-05-19T03:07:03.298Z,14.10
2019-05-19T03:09:31.140Z,14.10
2019-05-19T03:11:59.022Z,14.10
2019-05-19T03:14:26.890Z,14.00
2019-05-19T03:16:54.781Z,14.00
2019-05-19T03:19:22.617Z,14.00
2019-05-19T03:21:50.573Z,13.90
2019-05-19T03:24:18.442Z,13.90
2019-05-19T03:26:46.336Z,14.00
2019-05-19T03:29:16.870Z,14.00
2019-05-19T03:31:51.015Z,14.00
2019-05-19T03:34:19.107Z,14.00
2019-05-19T03:36:46.921Z,14.00
2019-05-19T03:39:14.794Z,14.00
2019-05-19T03:41:42.648Z,14.00
2019-05-19T03:44:10.501Z,14.00
2019-05-19T03:46:38.382Z,14.10
2019-05-19T03:49:06.234Z,14.20
2019-05-19T03:51:34.387Z,14.30
2019-05-19T03:54:02.280Z,14.40
2019-05-19T03:56:30.159Z,14.50
2019-05-19T03:58:58.303Z,14.50
2019-05-19T04:01:26.207Z,14.60
2019-05-19T04:03:54.131Z,14.60
2019-05-19T04:06:21.947Z,14.70
2019-05-19T04:08:49.795Z,14.70
2019-05-19T04:11:17.737Z,14.70
2019-05-19T04:13:45.635Z,14.80
2019-05-19T04:16:13.493Z,14.90
2019-05-19T04:18:41.383Z,15.00
2019-05-19T04:21:09.226Z,15.10
2019-05-19T04:23:37.110Z,15.20
2019-05-19T04:26:05.482Z,15.30
2019-05-19T04:28:33.632Z,15.40
2019-05-19T04:31:01.429Z,15.50
2019-05-19T04:33:29.295Z,15.60
2019-05-19T04:35:57.720Z,15.70
2019-05-19T04:38:25.649Z,15.80
2019-05-19T04:40:53.562Z,15.90
2019-05-19T04:43:21.463Z,15.90
2019-05-19T04:45:49.414Z,16.00
2019-05-19T04:48:17.231Z,16.10
2019-05-19T04:50:45.459Z,16.20
2019-05-19T04:53:13.388Z,16.20
2019-05-19T04:55:41.206Z,16.20
2019-05-19T04:58:28.275Z,16.30
2019-05-19T05:00:56.175Z,16.40
2019-05-19T05:03:23.987Z,16.60
2019-05-19T05:05:51.832Z,16.60
2019-05-19T05:08:29.790Z,16.70
2019-05-19T05:10:52.067Z,16.70
2019-05-19T05:13:19.972Z,16.80
2019-05-19T05:15:47.798Z,16.90
2019-05-19T05:18:15.700Z,17.00
2019-05-19T05:20:43.555Z,17.10
2019-05-19T05:23:11.430Z,17.30
2019-05-19T05:25:39.279Z,17.40
2019-05-19T05:28:07.179Z,17.40
2019-05-19T05:30:35.011Z,17.50
2019-05-19T05:33:02.969Z,17.60
2019-05-19T05:35:30.855Z,17.60
2019-05-19T05:37:58.743Z,17.70
2019-05-19T05:40:26.659Z,17.70
2019-05-19T05:42:54.492Z,17.70
2019-05-19T05:45:22.402Z,17.70
2019-05-19T05:47:50.207Z,17.70
2019-05-19T05:50:18.124Z,17.80
2019-05-19T05:52:45.942Z,17.90
2019-05-19T05:55:13.778Z,18.00
2019-05-19T05:57:41.651Z,18.10
2019-05-19T06:00:09.838Z,18.20
2019-05-19T06:02:37.726Z,18.30
2019-05-19T06:05:05.975Z,18.50
2019-05-19T06:07:33.838Z,18.70
2019-05-19T06:10:02.003Z,18.80
2019-05-19T06:12:29.911Z,19.00
2019-05-19T06:14:57.770Z,19.10
2019-05-19T06:17:25.615Z,19.10
2019-05-19T06:19:53.511Z,19.20
2019-05-19T06:22:21.435Z,19.20
2019-05-19T06:24:49.338Z,19.20
2019-05-19T06:27:17.274Z,19.30
2019-05-19T06:29:45.187Z,19.30
2019-05-19T06:32:20.422Z,19.30
2019-05-19T06:34:48.363Z,19.50
2019-05-19T06:37:16.507Z,19.60
2019-05-19T06:39:44.331Z,19.80
2019-05-19T06:42:12.462Z,19.90
2019-05-19T06:44:40.362Z,19.90
2019-05-19T06:47:08.218Z,20.00
2019-05-19T06:49:36.096Z,20.00
2019-05-19T06:52:03.947Z,20.10
2019-05-19T06:54:32.106Z,20.20
2019-05-19T06:56:59.894Z,20.30
2019-05-19T06:59:27.711Z,20.40
2019-05-19T07:01:55.783Z,20.50
2019-05-19T07:04:23.627Z,20.50
2019-05-19T07:06:51.911Z,20.50
2019-05-19T07:09:19.958Z,20.60
2019-05-19T07:11:48.088Z,20.70
2019-05-19T07:14:15.898Z,20.90
2019-05-19T07:16:44.067Z,21.00
2019-05-19T07:19:12.050Z,21.00
2019-05-19T07:21:39.890Z,21.10
2019-05-19T07:24:08.175Z,21.20
2019-05-19T07:26:36.037Z,21.20
2019-05-19T07:29:03.895Z,21.30
2019-05-19T07:31:31.767Z,21.30
2019-05-19T07:33:59.556Z,21.30
2019-05-19T07:36:27.405Z,21.40
2019-05-19T07:38:55.538Z,21.40
2019-05-19T07:41:23.358Z,21.50
2019-05-19T07:43:51.245Z,21.70
2019-05-19T07:46:19.094Z,21.70
2019-05-19T07:48:46.955Z,21.80
2019-05-19T07:51:14.833Z,21.90
2019-05-19T07:53:43.466Z,22.00
2019-05-19T07:56:11.414Z,22.10
2019-05-19T07:58:39.211Z,22.30
2019-05-19T08:01:07.100Z,22.40
2019-05-19T08:03:34.882Z,22.50
2019-05-19T08:06:02.995Z,22.60
2019-05-19T08:08:31.337Z,22.70
2019-05-19T08:10:59.218Z,22.70
2019-05-19T08:13:27.596Z,22.80
2019-05-19T08:15:55.458Z,22.80
2019-05-19T08:18:23.380Z,22.90
2019-05-19T08:20:51.196Z,22.90
2019-05-19T08:23:19.398Z,23.10
2019-05-19T08:25:47.216Z,23.20
2019-05-19T08:28:15.077Z,23.40
2019-05-19T08:30:42.979Z,23.50
2019-05-19T08:33:10.922Z,23.60
2019-05-19T08:35:38.807Z,23.50
2019-05-19T08:38:06.651Z,23.60
2019-05-19T08:40:34.573Z,23.50
2019-05-19T08:43:02.655Z,23.60
2019-05-19T08:45:30.583Z,23.70
2019-05-19T08:47:58.539Z,23.60
2019-05-19T08:50:26.342Z,23.60
2019-05-19T08:52:54.121Z,23.60
2019-05-19T08:55:21.915Z,23.70
2019-05-19T08:57:49.812Z,23.70
2019-05-19T09:00:17.674Z,23.80
2019-05-19T09:02:45.502Z,23.70
2019-05-19T09:05:13.391Z,23.60
2019-05-19T09:07:41.337Z,23.50
2019-05-19T09:10:09.526Z,23.50
2019-05-19T09:12:37.322Z,23.50
2019-05-19T09:15:05.779Z,23.50
2019-05-19T09:17:33.568Z,23.60
2019-05-19T09:20:01.498Z,23.60
2019-05-19T09:22:29.302Z,23.50
2019-05-19T09:24:57.070Z,23.50
2019-05-19T09:27:24.873Z,23.60
2019-05-19T09:29:52.709Z,23.80
2019-05-19T09:32:20.591Z,23.80
2019-05-19T09:34:48.430Z,23.80
2019-05-19T09:37:16.307Z,23.80
2019-05-19T09:39:44.157Z,23.90
2019-05-19T09:42:11.948Z,24.00
2019-05-19T09:44:39.719Z,24.00
2019-05-19T09:47:07.527Z,24.10
2019-05-19T09:49:35.511Z,24.00
2019-05-19T09:52:05.110Z,24.00
2019-05-19T09:54:44.084Z,24.10
2019-05-19T09:57:02.540Z,24.00
2019-05-19T09:59:30.367Z,24.10
2019-05-19T10:01:58.226Z,24.10
2019-05-19T10:04:26.099Z,24.20
2019-05-19T10:06:53.905Z,24.20
2019-05-19T10:09:22.744Z,24.10
2019-05-19T10:12:00.644Z,24.20
2019-05-19T10:14:28.428Z,24.20
2019-05-19T10:16:56.322Z,24.20
2019-05-19T10:19:24.211Z,24.20
2019-05-19T10:21:51.994Z,24.30
2019-05-19T10:24:19.790Z,24.40
2019-05-19T10:26:47.955Z,24.40
2019-05-19T10:29:15.915Z,24.50
2019-05-19T10:31:43.722Z,24.50
2019-05-19T10:34:11.494Z,24.50
2019-05-19T10:36:39.338Z,24.50
2019-05-19T10:39:07.230Z,24.50
2019-05-19T10:41:35.114Z,24.60
2019-05-19T10:44:03.019Z,24.70
2019-05-19T10:46:30.807Z,24.80
2019-05-19T10:48:59.046Z,24.80
2019-05-19T10:51:26.880Z,24.90
2019-05-19T10:53:54.699Z,25.00
2019-05-19T10:56:22.496Z,25.20
2019-05-19T10:58:50.393Z,25.30
2019-05-19T11:01:18.188Z,25.30
2019-05-19T11:03:46.021Z,25.40
2019-05-19T11:06:13.896Z,25.50
2019-05-19T11:08:41.858Z,25.50
2019-05-19T11:11:09.716Z,25.50
2019-05-19T11:13:37.511Z,25.70
2019-05-19T11:16:05.431Z,25.80
2019-05-19T11:18:33.332Z,26.00
2019-05-19T11:21:01.208Z,26.20
2019-05-19T11:23:29.801Z,26.30
2019-05-19T11:25:57.586Z,26.30
2019-05-19T11:28:25.419Z,26.40
2019-05-19T11:30:53.314Z,26.50
2019-05-19T11:33:21.136Z,26.60
2019-05-19T11:35:49.037Z,26.70
2019-05-19T11:38:16.831Z,26.90
2019-05-19T11:40:44.608Z,27.10
2019-05-19T11:43:12.395Z,27.10
2019-05-19T11:45:40.505Z,27.40
2019-05-19T11:48:08.330Z,27.40
2019-05-19T11:50:36.183Z,27.40
2019-05-19T11:53:04.137Z,27.20
2019-05-19T11:55:32.028Z,26.90
2019-05-19T11:57:59.835Z,26.80
2019-05-19T12:00:27.959Z,26.70
2019-05-19T12:02:55.752Z,26.50
2019-05-19T12:05:23.979Z,26.50
2019-05-19T12:07:52.799Z,26.50
2019-05-19T12:10:20.698Z,26.50
2019-05-19T12:12:48.602Z,26.50
2019-05-19T12:15:16.591Z,26.40
2019-05-19T12:17:44.462Z,26.40
2019-05-19T12:20:12.537Z,26.50
2019-05-19T12:22:40.407Z,26.70
2019-05-19T12:25:08.629Z,26.90
2019-05-19T12:27:36.474Z,27.10
2019-05-19T12:30:04.386Z,27.30
2019-05-19T12:32:32.523Z,27.30
2019-05-19T12:35:00.386Z,27.40
2019-05-19T12:37:28.177Z,27.60
2019-05-19T12:39:55.998Z,27.80
2019-05-19T12:42:23.846Z,27.90
2019-05-19T12:44:51.907Z,28.00
2019-05-19T12:47:19.790Z,28.00
2019-05-19T12:49:47.688Z,28.00
2019-05-19T12:52:15.603Z,28.10
2019-05-19T12:54:43.424Z,28.00
2019-05-19T12:57:11.284Z,28.00
2019-05-19T12:59:39.154Z,28.20
2019-05-19T13:02:06.998Z,28.40
2019-05-19T13:04:34.875Z,28.50
2019-05-19T13:07:02.712Z,28.50
2019-05-19T13:09:30.521Z,28.40
2019-05-19T13:11:58.299Z,28.30
2019-05-19T13:14:26.148Z,28.10
2019-05-19T13:16:53.919Z,27.90
2019-05-19T13:19:21.725Z,27.70
2019-05-19T13:21:49.553Z,27.50
2019-05-19T13:24:17.346Z,27.50
2019-05-19T13:26:55.960Z,27.50
2019-05-19T13:29:14.691Z,27.50
2019-05-19T13:31:42.545Z,27.30
2019-05-19T13:34:10.410Z,27.30
2019-05-19T13:36:40.431Z,27.10
2019-05-19T13:39:07.971Z,27.00
2019-05-19T13:41:36.118Z,27.20
2019-05-19T13:44:04.182Z,27.50
2019-05-19T13:46:32.007Z,27.80
2019-05-19T13:48:59.931Z,27.70
2019-05-19T13:51:27.819Z,27.30
2019-05-19T13:53:55.585Z,26.90
2019-05-19T13:56:24.406Z,26.60
2019-05-19T13:58:52.166Z,26.30
2019-05-19T14:01:28.317Z,26.20
2019-05-19T14:03:52.120Z,26.10
2019-05-19T14:06:20.081Z,25.90
2019-05-19T14:08:48.752Z,25.80
2019-05-19T14:11:17.868Z,25.60
2019-05-19T14:13:46.423Z,25.40
2019-05-19T14:16:14.343Z,25.20
2019-05-19T14:18:42.166Z,25.00
2019-05-19T14:21:10.017Z,24.90
2019-05-19T14:23:38.151Z,24.70
2019-05-19T14:26:05.989Z,24.70
2019-05-19T14:28:33.801Z,24.60
2019-05-19T14:31:01.882Z,24.60
2019-05-19T14:33:29.684Z,24.50
2019-05-19T14:35:57.486Z,24.60
2019-05-19T14:38:25.266Z,24.60
2019-05-19T14:40:53.075Z,24.70
2019-05-19T14:43:21.791Z,25.00
2019-05-19T14:45:50.608Z,25.30
2019-05-19T14:48:18.392Z,25.80
2019-05-19T14:50:46.307Z,26.20
2019-05-19T14:53:15.427Z,26.60
2019-05-19T14:55:43.554Z,26.70
2019-05-19T14:58:11.427Z,26.80
2019-05-19T15:00:39.315Z,27.00
2019-05-19T15:03:07.146Z,27.00
2019-05-19T15:05:35.757Z,26.90
2019-05-19T15:08:03.655Z,26.60
2019-05-19T15:10:31.507Z,26.50
2019-05-19T15:12:59.448Z,26.20
2019-05-19T15:15:27.313Z,25.70
2019-05-19T15:17:55.467Z,25.60
2019-05-19T15:20:23.380Z,25.40
2019-05-19T15:22:51.287Z,25.40
2019-05-19T15:25:19.087Z,25.70
2019-05-19T15:27:59.235Z,25.90
2019-05-19T15:30:16.857Z,25.90
2019-05-19T15:32:44.780Z,25.70
2019-05-19T15:35:12.881Z,25.50
2019-05-19T15:37:42.048Z,25.20
2019-05-19T15:40:10.026Z,25.00
2019-05-19T15:42:37.967Z,24.90
2019-05-19T15:45:07.016Z,24.90
2019-05-19T15:47:36.299Z,24.70
2019-05-19T15:50:04.565Z,24.80
2019-05-19T15:52:32.707Z,24.80
2019-05-19T15:55:00.562Z,24.90
2019-05-19T15:57:28.860Z,24.90
2019-05-19T15:59:56.702Z,25.10
2019-05-19T16:02:24.594Z,25.30
2019-05-19T16:04:52.383Z,25.40
2019-05-19T16:07:20.255Z,25.30
2019-05-19T16:09:48.098Z,25.00
2019-05-19T16:12:16.020Z,24.80
2019-05-19T16:14:46.779Z,24.50
2019-05-19T16:17:14.701Z,24.40
2019-05-19T16:19:42.498Z,24.20
2019-05-19T16:22:10.407Z,24.10
2019-05-19T16:24:38.212Z,24.00
2019-05-19T16:27:06.090Z,24.10
2019-05-19T16:29:33.960Z,24.20
2019-05-19T16:32:01.848Z,24.30
2019-05-19T16:34:29.743Z,24.60
2019-05-19T16:36:57.894Z,24.70
2019-05-19T16:39:25.697Z,25.60
2019-05-19T16:41:53.502Z,26.20
2019-05-19T16:44:21.577Z,26.50
2019-05-19T16:46:49.386Z,26.40
2019-05-19T16:49:17.170Z,26.40
2019-05-19T16:51:45.022Z,26.50
2019-05-19T16:54:17.670Z,26.60
2019-05-19T16:56:45.454Z,26.80
2019-05-19T16:59:19.665Z,26.70
2019-05-19T17:01:47.488Z,26.70
2019-05-19T17:04:15.282Z,26.70
2019-05-19T17:06:43.149Z,26.40
2019-05-19T17:09:10.943Z,25.90
2019-05-19T17:11:38.718Z,25.50
2019-05-19T17:14:06.511Z,25.10
2019-05-19T17:16:34.297Z,25.10
2019-05-19T17:19:02.124Z,25.00
2019-05-19T17:21:29.954Z,24.90
2019-05-19T17:23:57.756Z,24.80
2019-05-19T17:26:25.535Z,24.50
2019-05-19T17:29:00.813Z,24.40
2019-05-19T17:31:22.834Z,24.20
2019-05-19T17:33:50.646Z,24.10
2019-05-19T17:36:18.422Z,24.00
2019-05-19T17:38:46.269Z,24.00
2019-05-19T17:41:14.375Z,24.00
2019-05-19T17:43:42.274Z,24.00
2019-05-19T17:46:10.122Z,24.20
2019-05-19T17:48:38.023Z,24.40
2019-05-19T17:51:05.831Z,24.70
2019-05-19T17:53:33.699Z,25.00
2019-05-19T17:56:01.989Z,25.60
2019-05-19T17:58:30.085Z,26.20
2019-05-19T18:00:57.862Z,26.70
2019-05-19T18:03:25.998Z,26.90
2019-05-19T18:05:53.787Z,27.10
2019-05-19T18:08:21.586Z,27.30
2019-05-19T18:10:49.632Z,27.30
2019-05-19T18:13:17.410Z,27.10
2019-05-19T18:15:45.226Z,26.70
2019-05-19T18:18:13.002Z,26.10
2019-05-19T18:20:40.807Z,25.60
2019-05-19T18:23:08.631Z,25.20
2019-05-19T18:25:36.453Z,24.80
2019-05-19T18:28:04.259Z,24.20
2019-05-19T18:30:32.050Z,23.70
2019-05-19T18:33:00.474Z,23.30
2019-05-19T18:35:28.337Z,23.00
2019-05-19T18:37:56.489Z,22.80
2019-05-19T18:40:24.727Z,22.60
2019-05-19T18:42:52.506Z,22.50
2019-05-19T18:45:20.323Z,22.30
2019-05-19T18:47:48.174Z,22.20
2019-05-19T18:50:16.247Z,22.10
2019-05-19T18:52:44.106Z,21.90
2019-05-19T18:55:11.995Z,21.80
2019-05-19T18:57:39.897Z,21.70
2019-05-19T19:00:07.871Z,21.70
2019-05-19T19:02:35.755Z,21.60
2019-05-19T19:05:04.561Z,21.50
2019-05-19T19:07:50.638Z,21.40
2019-05-19T19:10:19.424Z,21.30
2019-05-19T19:12:47.385Z,21.30
2019-05-19T19:15:15.279Z,21.20
2019-05-19T19:17:43.168Z,21.20
2019-05-19T19:20:11.551Z,21.10
2019-05-19T19:22:39.355Z,21.10
2019-05-19T19:25:07.305Z,21.10
2019-05-19T19:27:35.934Z,21.10
2019-05-19T19:30:04.270Z,21.10
2019-05-19T19:32:32.338Z,21.10
2019-05-19T19:35:00.208Z,21.10
2019-05-19T19:37:27.994Z,21.00
2019-05-19T19:39:55.823Z,21.00
2019-05-19T19:42:23.627Z,21.00
2019-05-19T19:44:51.431Z,21.00
2019-05-19T19:47:19.210Z,21.00
2019-05-19T19:49:47.244Z,20.90
2019-05-19T19:52:15.064Z,20.80
2019-05-19T19:54:42.916Z,20.70
2019-05-19T19:57:10.802Z,20.70
2019-05-19T19:59:38.647Z,20.60
2019-05-19T20:02:06.558Z,20.50
2019-05-19T20:04:34.378Z,20.50
2019-05-19T20:07:02.219Z,20.40
2019-05-19T20:09:29.988Z,20.30
2019-05-19T20:11:57.800Z,20.20
2019-05-19T20:14:25.617Z,20.10
2019-05-19T20:16:53.447Z,20.00
2019-05-19T20:19:21.488Z,19.90
2019-05-19T20:21:49.578Z,19.90
2019-05-19T20:24:17.423Z,19.80
2019-05-19T20:26:45.575Z,19.70
2019-05-19T20:29:13.362Z,19.60
2019-05-19T20:31:41.246Z,19.60
2019-05-19T20:34:09.047Z,19.70
2019-05-19T20:36:36.946Z,19.70
2019-05-19T20:39:05.837Z,19.70
2019-05-19T20:41:33.667Z,19.80
2019-05-19T20:44:01.486Z,19.80
2019-05-19T20:46:29.372Z,19.70
2019-05-19T20:48:57.218Z,19.70
2019-05-19T20:51:25.030Z,19.80
2019-05-19T20:53:53.455Z,19.80
2019-05-19T20:56:21.460Z,19.80
2019-05-19T20:58:49.314Z,19.80
2019-05-19T21:01:17.190Z,19.70
2019-05-19T21:03:45.053Z,19.70
2019-05-19T21:06:12.842Z,19.70
2019-05-19T21:08:40.618Z,19.70
2019-05-19T21:11:08.451Z,19.70
2019-05-19T21:13:36.234Z,19.70
2019-05-19T21:16:04.090Z,19.60
2019-05-19T21:18:31.935Z,19.60
2019-05-19T21:20:59.801Z,19.50
2019-05-19T21:23:27.700Z,19.50
2019-05-19T21:25:55.618Z,19.50
2019-05-19T21:28:23.937Z,19.40
2019-05-19T21:31:04.911Z,19.40
2019-05-19T21:33:21.826Z,19.40
2019-05-19T21:35:49.695Z,19.40
2019-05-19T21:38:17.554Z,19.30
2019-05-19T21:40:45.670Z,19.30
2019-05-19T21:43:13.523Z,19.20
2019-05-19T21:45:41.347Z,19.20
2019-05-19T21:48:09.226Z,19.20
2019-05-19T21:50:37.375Z,19.20
2019-05-19T21:53:06.613Z,19.10
2019-05-19T21:55:34.689Z,19.00
2019-05-19T21:58:02.553Z,19.00
2019-05-19T22:00:31.253Z,18.90
2019-05-19T22:02:59.267Z,18.80
2019-05-19T22:05:27.150Z,18.70
2019-05-19T22:08:08.126Z,18.60
2019-05-19T22:10:35.982Z,18.50
2019-05-19T22:13:03.785Z,18.50
2019-05-19T22:15:31.568Z,18.40
2019-05-19T22:17:59.486Z,18.40
2019-05-19T22:20:27.683Z,18.30
2019-05-19T22:22:55.825Z,18.20
2019-05-19T22:25:23.606Z,18.20
2019-05-19T22:27:51.394Z,18.10
2019-05-19T22:30:19.247Z,18.10
2019-05-19T22:32:47.295Z,18.00
2019-05-19T22:35:15.143Z,17.90
2019-05-19T22:37:42.962Z,17.90
2019-05-19T22:40:11.041Z,17.90
2019-05-19T22:42:39.066Z,17.80
2019-05-19T22:45:06.925Z,17.80
2019-05-19T22:47:34.752Z,17.80
2019-05-19T22:50:02.931Z,17.80
2019-05-19T22:52:30.895Z,17.60
2019-05-19T22:54:58.910Z,17.60
2019-05-19T22:57:26.718Z,17.50
2019-05-19T22:59:54.759Z,17.50
2019-05-19T23:02:22.530Z,17.50
2019-05-19T23:04:50.321Z,17.40
2019-05-19T23:07:18.092Z,17.30
2019-05-19T23:09:45.878Z,17.30
2019-05-19T23:12:13.726Z,17.20
2019-05-19T23:14:41.582Z,17.20
2019-05-19T23:17:09.368Z,17.10
2019-05-19T23:19:37.156Z,17.10
2019-05-19T23:22:05.226Z,17.00
2019-05-19T23:24:33.067Z,16.90
2019-05-19T23:27:00.859Z,17.00
2019-05-19T23:29:28.703Z,17.00
2019-05-19T23:32:06.724Z,16.90
2019-05-19T23:34:26.173Z,16.90
2019-05-19T23:36:54.011Z,16.80
2019-05-19T23:39:21.904Z,16.80
2019-05-19T23:41:49.751Z,16.70
2019-05-19T23:44:17.710Z,16.70
2019-05-19T23:46:46.494Z,16.60
2019-05-19T23:49:14.314Z,16.60
2019-05-19T23:51:42.086Z,16.60
2019-05-19T23:54:09.878Z,16.50
2019-05-19T23:56:37.651Z,16.50
2019-05-19T23:59:05.451Z,16.60
